createdAt,value
2016-11-16T00:01:22.303Z,0
2016-11-16T00:02:32.738Z,0
2016-11-16T00:03:43.177Z,0
2016-11-16T00:05:08.356Z,0
2016-11-16T00:06:18.825Z,0
2016-11-16T00:07:29.263Z,0
2016-11-16T00:08:39.699Z,0
2016-11-16T00:09:50.138Z,0
2016-11-16T00:11:00.578Z,0
2016-11-16T00:12:11.015Z,0
2016-11-16T00:13:21.456Z,0
2016-11-16T00:14:32.426Z,0
2016-11-16T00:15:42.865Z,0
2016-11-16T00:16:53.533Z,0
2016-11-16T00:18:03.973Z,0
2016-11-16T00:19:14.432Z,0
2016-11-16T00:20:25.370Z,0
2016-11-16T00:21:35.810Z,0
2016-11-16T00:22:46.353Z,0
2016-11-16T00:23:56.797Z,0
2016-11-16T00:25:07.235Z,0
2016-11-16T00:26:32.220Z,0
2016-11-16T00:27:42.886Z,0
2016-11-16T00:29:07.864Z,0
2016-11-16T00:30:18.300Z,0
2016-11-16T00:31:28.736Z,0
2016-11-16T00:32:39.280Z,0
2016-11-16T00:33:49.719Z,0
2016-11-16T00:36:25.159Z,0
2016-11-16T00:37:35.594Z,0
2016-11-16T00:38:46.126Z,0
2016-11-16T00:39:56.659Z,0
2016-11-16T00:41:07.190Z,0
2016-11-16T00:43:57.814Z,0
2016-11-16T00:45:22.868Z,0
2016-11-16T00:46:33.402Z,0
2016-11-16T00:47:43.932Z,0
2016-11-16T00:48:54.592Z,0
2016-11-16T00:50:05.150Z,0
2016-11-16T00:51:15.678Z,0
2016-11-16T00:52:26.211Z,0
2016-11-16T00:55:02.021Z,0
2016-11-16T00:56:12.585Z,0
2016-11-16T00:57:37.636Z,0
2016-11-16T00:58:48.695Z,0
2016-11-16T00:59:59.426Z,0
2016-11-16T01:01:10.467Z,0
2016-11-16T01:02:20.994Z,0
2016-11-16T01:03:31.527Z,0
2016-11-16T01:04:42.057Z,0
2016-11-16T01:05:52.690Z,0
2016-11-16T01:07:03.219Z,0
2016-11-16T01:08:13.748Z,0
2016-11-16T01:09:24.278Z,0
2016-11-16T01:10:34.806Z,0
2016-11-16T01:11:45.562Z,0
2016-11-16T01:12:56.088Z,0
2016-11-16T01:14:06.624Z,0
2016-11-16T01:15:17.152Z,0
2016-11-16T01:16:27.677Z,0
2016-11-16T01:17:38.303Z,0
2016-11-16T01:18:48.830Z,0
2016-11-16T01:20:13.891Z,0
2016-11-16T01:21:24.419Z,0
2016-11-16T01:22:35.045Z,0
2016-11-16T01:23:45.511Z,0
2016-11-16T01:24:55.945Z,0
2016-11-16T01:26:06.380Z,0
2016-11-16T01:27:31.356Z,0
2016-11-16T01:28:56.338Z,0
2016-11-16T01:30:06.779Z,0
2016-11-16T01:31:17.213Z,0
2016-11-16T01:32:27.648Z,0
2016-11-16T01:33:38.183Z,0
2016-11-16T01:34:48.615Z,0
2016-11-16T01:35:59.048Z,0
2016-11-16T01:37:09.483Z,0
2016-11-16T01:38:19.927Z,0
2016-11-16T01:39:30.362Z,0
2016-11-16T01:40:40.799Z,0
2016-11-16T01:41:51.239Z,0
2016-11-16T01:43:01.680Z,0
2016-11-16T01:44:12.607Z,0
2016-11-16T01:45:23.143Z,0
2016-11-16T01:46:33.586Z,0
2016-11-16T01:47:44.022Z,0
2016-11-16T01:48:54.458Z,0
2016-11-16T01:50:04.897Z,0
2016-11-16T01:51:29.882Z,0
2016-11-16T01:52:40.316Z,0
2016-11-16T01:53:50.750Z,0
2016-11-16T01:55:01.188Z,0
2016-11-16T01:56:11.724Z,0
2016-11-16T01:57:22.168Z,0
2016-11-16T01:58:32.610Z,0
2016-11-16T01:59:43.051Z,0
2016-11-16T02:01:08.134Z,0
2016-11-16T02:02:18.565Z,0
2016-11-16T02:03:29.011Z,0
2016-11-16T02:04:53.993Z,0
2016-11-16T02:06:04.436Z,0
2016-11-16T02:07:14.876Z,0
2016-11-16T02:08:25.315Z,0
2016-11-16T02:09:35.756Z,0
2016-11-16T02:10:46.194Z,0
2016-11-16T02:11:56.632Z,0
2016-11-16T02:13:07.266Z,0
2016-11-16T02:14:32.737Z,0
2016-11-16T02:15:43.173Z,0
2016-11-16T02:16:53.608Z,0
2016-11-16T02:18:04.151Z,0
2016-11-16T02:19:29.136Z,0
2016-11-16T02:20:39.572Z,0
2016-11-16T02:21:50.008Z,0
2016-11-16T02:23:00.548Z,0
2016-11-16T02:24:10.990Z,0
2016-11-16T02:25:21.430Z,0
2016-11-16T02:26:31.872Z,0
2016-11-16T02:27:42.312Z,0
2016-11-16T02:28:52.974Z,0
2016-11-16T02:30:03.415Z,0
2016-11-16T02:31:13.850Z,0
2016-11-16T02:32:24.284Z,0
2016-11-16T02:33:34.723Z,0
2016-11-16T02:34:45.272Z,0
2016-11-16T02:35:56.193Z,0
2016-11-16T02:37:06.635Z,0
2016-11-16T02:38:31.615Z,0
2016-11-16T02:39:42.250Z,0
2016-11-16T02:40:52.694Z,0
2016-11-16T02:42:03.135Z,0
2016-11-16T02:43:13.571Z,0
2016-11-16T02:44:24.015Z,0
2016-11-16T02:45:48.994Z,0
2016-11-16T02:46:59.429Z,0
2016-11-16T02:48:09.872Z,0
2016-11-16T02:49:34.893Z,0
2016-11-16T02:50:45.356Z,0
2016-11-16T02:51:56.297Z,0
2016-11-16T02:53:06.730Z,0
2016-11-16T02:54:17.203Z,0
2016-11-16T02:55:27.676Z,0
2016-11-16T02:56:38.216Z,0
2016-11-16T02:57:48.651Z,0
2016-11-16T02:58:59.087Z,0
2016-11-16T03:00:09.528Z,0
2016-11-16T03:01:19.966Z,0
2016-11-16T03:02:30.404Z,0
2016-11-16T03:03:40.847Z,0
2016-11-16T03:04:51.279Z,0
2016-11-16T03:06:01.714Z,0
2016-11-16T03:07:12.151Z,0
2016-11-16T03:09:47.569Z,0
2016-11-16T03:11:12.556Z,0
2016-11-16T03:12:22.991Z,0
2016-11-16T03:13:34.012Z,0
2016-11-16T03:14:44.448Z,0
2016-11-16T03:16:09.426Z,0
2016-11-16T03:17:19.864Z,0
2016-11-16T03:18:30.303Z,0
2016-11-16T03:19:55.285Z,0
2016-11-16T03:21:05.724Z,0
2016-11-16T03:22:16.161Z,0
2016-11-16T03:23:26.597Z,0
2016-11-16T03:24:37.037Z,0
2016-11-16T03:25:47.472Z,0
2016-11-16T03:26:57.908Z,0
2016-11-16T03:28:08.347Z,0
2016-11-16T03:29:18.785Z,0
2016-11-16T03:30:29.229Z,0
2016-11-16T03:31:54.209Z,0
2016-11-16T03:33:04.645Z,0
2016-11-16T03:34:15.082Z,0
2016-11-16T03:35:25.521Z,0
2016-11-16T03:36:35.955Z,0
2016-11-16T03:37:46.388Z,0
2016-11-16T03:38:56.861Z,0
2016-11-16T03:41:32.427Z,0
2016-11-16T03:42:57.407Z,0
2016-11-16T03:44:07.870Z,0
2016-11-16T03:45:18.503Z,0
2016-11-16T03:46:28.938Z,0
2016-11-16T03:47:39.865Z,0
2016-11-16T03:48:50.789Z,0
2016-11-16T03:50:01.223Z,0
2016-11-16T03:51:11.862Z,0
2016-11-16T03:52:22.295Z,0
2016-11-16T03:53:32.733Z,0
2016-11-16T03:54:57.711Z,0
2016-11-16T03:56:08.349Z,0
2016-11-16T03:57:18.796Z,0
2016-11-16T03:58:29.238Z,0
2016-11-16T03:59:39.675Z,0
2016-11-16T04:00:50.116Z,0
2016-11-16T04:02:00.552Z,0
2016-11-16T04:03:10.986Z,0
2016-11-16T04:04:21.427Z,0
2016-11-16T04:05:31.862Z,0
2016-11-16T04:06:42.299Z,0
2016-11-16T04:07:53.635Z,0
2016-11-16T04:09:04.072Z,0
2016-11-16T04:10:14.401Z,0
2016-11-16T04:11:24.716Z,0
2016-11-16T04:12:49.804Z,0
2016-11-16T04:14:00.126Z,0
2016-11-16T04:15:10.918Z,0
2016-11-16T04:16:35.806Z,0
2016-11-16T04:17:46.121Z,0
2016-11-16T04:19:11.107Z,0
2016-11-16T04:20:21.427Z,0
2016-11-16T04:21:46.314Z,0
2016-11-16T04:22:56.633Z,0
2016-11-16T04:24:07.145Z,0
2016-11-16T04:25:17.555Z,0
2016-11-16T04:26:27.965Z,0
2016-11-16T04:27:38.379Z,0
2016-11-16T04:28:48.799Z,0
2016-11-16T04:31:24.403Z,0
2016-11-16T04:32:34.815Z,0
2016-11-16T04:33:45.225Z,0
2016-11-16T04:34:56.226Z,0
2016-11-16T04:36:06.634Z,0
2016-11-16T04:37:17.043Z,0
2016-11-16T04:38:27.451Z,0
2016-11-16T04:39:37.863Z,0
2016-11-16T04:40:48.471Z,0
2016-11-16T04:41:58.889Z,0
2016-11-16T04:43:09.301Z,0
2016-11-16T04:44:19.709Z,0
2016-11-16T04:45:30.117Z,0
2016-11-16T04:46:40.527Z,0
2016-11-16T04:47:50.940Z,0
2016-11-16T04:49:01.353Z,0
2016-11-16T04:50:11.815Z,0
2016-11-16T04:51:22.233Z,0
2016-11-16T04:52:32.645Z,0
2016-11-16T04:53:43.061Z,0
2016-11-16T04:54:53.478Z,0
2016-11-16T04:56:03.888Z,0
2016-11-16T04:57:14.300Z,0
2016-11-16T04:58:24.738Z,0
2016-11-16T04:59:35.148Z,0
2016-11-16T05:00:45.555Z,0
2016-11-16T05:01:55.968Z,0
2016-11-16T05:03:06.383Z,0
2016-11-16T05:04:16.891Z,0
2016-11-16T05:05:27.312Z,0
2016-11-16T05:06:37.718Z,0
2016-11-16T05:07:48.136Z,0
2016-11-16T05:09:13.195Z,0
2016-11-16T05:10:23.611Z,0
2016-11-16T05:11:34.049Z,0
2016-11-16T05:12:44.459Z,0
2016-11-16T05:13:54.874Z,0
2016-11-16T05:15:05.286Z,0
2016-11-16T05:16:15.696Z,0
2016-11-16T05:17:40.655Z,0
2016-11-16T05:18:51.066Z,0
2016-11-16T05:20:01.481Z,0
2016-11-16T05:21:12.381Z,0
2016-11-16T05:22:22.787Z,0
2016-11-16T05:23:33.194Z,0
2016-11-16T05:24:43.614Z,0
2016-11-16T05:25:54.223Z,0
2016-11-16T05:27:04.636Z,0
2016-11-16T05:28:15.047Z,0
2016-11-16T05:29:25.476Z,0
2016-11-16T05:30:35.921Z,0
2016-11-16T05:31:46.429Z,0
2016-11-16T05:32:56.871Z,0
2016-11-16T05:34:21.834Z,0
2016-11-16T05:35:32.255Z,0
2016-11-16T05:36:57.214Z,0
2016-11-16T05:38:07.624Z,0
2016-11-16T05:39:18.034Z,0
2016-11-16T05:40:28.514Z,0
2016-11-16T05:41:39.421Z,0
2016-11-16T05:42:49.834Z,0
2016-11-16T05:44:00.241Z,0
2016-11-16T05:45:10.703Z,0
2016-11-16T05:46:35.663Z,0
2016-11-16T05:47:46.272Z,0
2016-11-16T05:48:56.689Z,0
2016-11-16T05:50:07.104Z,0
2016-11-16T05:51:17.513Z,0
2016-11-16T05:52:28.027Z,0
2016-11-16T05:53:39.256Z,0
2016-11-16T05:54:49.782Z,0
2016-11-16T05:56:00.316Z,0
2016-11-16T05:57:10.850Z,0
2016-11-16T05:58:21.378Z,0
2016-11-16T05:59:32.009Z,0
2016-11-16T06:00:42.540Z,0
2016-11-16T06:01:53.069Z,0
2016-11-16T06:03:03.599Z,0
2016-11-16T06:04:14.126Z,0
2016-11-16T06:05:24.855Z,0
2016-11-16T06:06:35.386Z,0
2016-11-16T06:07:45.916Z,0
2016-11-16T06:09:10.968Z,0
2016-11-16T06:10:21.496Z,0
2016-11-16T06:11:32.025Z,0
2016-11-16T06:12:42.558Z,0
2016-11-16T06:13:53.114Z,0
2016-11-16T06:15:03.681Z,0
2016-11-16T06:16:14.309Z,0
2016-11-16T06:17:24.844Z,0
2016-11-16T06:18:35.377Z,0
2016-11-16T06:19:45.910Z,0
2016-11-16T06:20:56.438Z,0
2016-11-16T06:22:21.592Z,0
2016-11-16T06:23:32.121Z,0
2016-11-16T06:24:42.665Z,0
2016-11-16T06:25:53.230Z,0
2016-11-16T06:27:03.867Z,0
2016-11-16T06:28:14.394Z,0
2016-11-16T06:29:24.922Z,0
2016-11-16T06:30:35.453Z,0
2016-11-16T06:32:00.510Z,0
2016-11-16T06:33:11.035Z,0
2016-11-16T06:34:21.563Z,0
2016-11-16T06:35:32.092Z,0
2016-11-16T06:36:42.622Z,0
2016-11-16T06:37:53.150Z,0
2016-11-16T06:39:03.681Z,0
2016-11-16T06:40:28.745Z,0
2016-11-16T06:41:39.774Z,0
2016-11-16T06:43:04.827Z,0
2016-11-16T06:44:15.855Z,0
2016-11-16T06:45:26.385Z,0
2016-11-16T06:46:36.915Z,0
2016-11-16T06:47:47.446Z,0
2016-11-16T06:48:57.976Z,0
2016-11-16T06:50:08.508Z,0
2016-11-16T06:51:19.035Z,0
2016-11-16T06:52:29.571Z,0
2016-11-16T06:53:40.129Z,0
2016-11-16T06:55:05.387Z,0
2016-11-16T06:56:15.913Z,0
2016-11-16T06:57:26.444Z,0
2016-11-16T06:58:36.975Z,0
2016-11-16T06:59:47.708Z,0
2016-11-16T07:00:58.233Z,0
2016-11-16T07:02:08.766Z,0
2016-11-16T07:04:44.450Z,0
2016-11-16T07:05:54.990Z,0
2016-11-16T07:07:05.514Z,0
2016-11-16T07:08:16.067Z,0
2016-11-16T07:09:26.595Z,0
2016-11-16T07:10:37.328Z,0
2016-11-16T07:11:47.856Z,0
2016-11-16T07:12:58.383Z,0
2016-11-16T07:14:08.947Z,0
2016-11-16T07:15:19.508Z,0
2016-11-16T07:16:30.537Z,0
2016-11-16T07:17:41.074Z,0
2016-11-16T07:18:51.606Z,0
2016-11-16T07:20:02.137Z,0
2016-11-16T07:21:12.663Z,0
2016-11-16T07:22:23.401Z,0
2016-11-16T07:23:33.931Z,0
2016-11-16T07:24:44.459Z,0
2016-11-16T07:25:54.985Z,0
2016-11-16T07:27:05.514Z,0
2016-11-16T07:28:16.277Z,0
2016-11-16T07:29:26.805Z,0
2016-11-16T07:30:37.364Z,0
2016-11-16T07:31:47.894Z,0
2016-11-16T07:32:58.426Z,0
2016-11-16T07:34:08.959Z,0
2016-11-16T07:35:19.513Z,0
2016-11-16T07:36:30.044Z,0
2016-11-16T07:37:40.571Z,0
2016-11-16T07:38:51.113Z,0
2016-11-16T07:40:01.740Z,0
2016-11-16T07:41:12.270Z,0
2016-11-16T07:42:37.323Z,0
2016-11-16T07:43:47.853Z,0
2016-11-16T07:44:58.482Z,0
2016-11-16T07:46:09.010Z,0
2016-11-16T07:47:19.539Z,0
2016-11-16T07:48:30.110Z,0
2016-11-16T07:49:40.641Z,0
2016-11-16T07:50:51.175Z,0
2016-11-16T07:52:01.707Z,0
2016-11-16T07:53:12.270Z,0
2016-11-16T07:54:22.800Z,0
2016-11-16T07:55:33.332Z,0
2016-11-16T07:56:44.057Z,0
2016-11-16T07:57:54.586Z,0
2016-11-16T07:59:05.118Z,0
2016-11-16T08:00:15.674Z,0
2016-11-16T08:01:26.208Z,0
2016-11-16T08:02:36.837Z,0
2016-11-16T08:03:47.368Z,0
2016-11-16T08:04:57.895Z,0
2016-11-16T08:06:08.317Z,0
2016-11-16T08:07:18.726Z,0
2016-11-16T08:08:29.239Z,0
2016-11-16T08:09:39.688Z,0
2016-11-16T08:10:50.129Z,0
2016-11-16T08:12:00.536Z,0
2016-11-16T08:13:10.946Z,0
2016-11-16T08:14:21.845Z,0
2016-11-16T08:15:32.257Z,0
2016-11-16T08:16:42.671Z,0
2016-11-16T08:17:53.140Z,0
2016-11-16T08:19:03.552Z,0
2016-11-16T08:21:39.123Z,0
2016-11-16T08:23:04.082Z,0
2016-11-16T08:24:29.041Z,0
2016-11-16T08:25:39.653Z,0
2016-11-16T08:26:50.068Z,0
2016-11-16T08:28:00.479Z,0
2016-11-16T08:29:10.893Z,0
2016-11-16T08:30:21.305Z,0
2016-11-16T08:31:31.947Z,0
2016-11-16T08:32:42.356Z,0
2016-11-16T08:33:52.780Z,0
2016-11-16T08:35:03.188Z,0
2016-11-16T08:36:13.599Z,0
2016-11-16T08:37:24.142Z,0
2016-11-16T08:38:34.549Z,0
2016-11-16T08:41:10.120Z,0
2016-11-16T08:42:20.647Z,0
2016-11-16T08:43:31.174Z,0
2016-11-16T08:44:41.701Z,0
2016-11-16T08:45:52.229Z,5
2016-11-16T08:47:02.761Z,5
2016-11-16T08:48:13.385Z,5
2016-11-16T08:49:23.912Z,5
2016-11-16T08:50:34.438Z,5
2016-11-16T08:51:44.973Z,5
2016-11-16T08:52:55.439Z,5
2016-11-16T08:54:05.975Z,10
2016-11-16T08:55:16.418Z,10
2016-11-16T08:56:26.850Z,10
2016-11-16T08:57:37.289Z,10
2016-11-16T08:58:47.724Z,15
2016-11-16T08:59:58.359Z,10
2016-11-16T09:01:08.792Z,10
2016-11-16T09:02:19.230Z,10
2016-11-16T09:03:29.668Z,10
2016-11-16T09:04:40.108Z,10
2016-11-16T09:05:50.653Z,10
2016-11-16T09:07:01.087Z,10
2016-11-16T09:08:11.522Z,10
2016-11-16T09:09:21.963Z,10
2016-11-16T09:10:32.393Z,10
2016-11-16T09:11:43.027Z,10
2016-11-16T09:14:18.276Z,10
2016-11-16T09:15:28.594Z,15
2016-11-16T09:16:38.939Z,15
2016-11-16T09:17:49.257Z,15
2016-11-16T09:18:59.585Z,15
2016-11-16T09:20:09.906Z,15
2016-11-16T09:21:20.227Z,15
2016-11-16T09:22:30.745Z,15
2016-11-16T09:23:41.078Z,15
2016-11-16T09:24:51.399Z,20
2016-11-16T09:26:01.714Z,20
2016-11-16T09:27:12.032Z,20
2016-11-16T09:28:22.548Z,20
2016-11-16T09:29:47.430Z,20
2016-11-16T09:30:57.751Z,20
2016-11-16T09:32:22.635Z,20
2016-11-16T09:33:32.953Z,20
2016-11-16T09:34:43.278Z,20
2016-11-16T09:35:53.596Z,20
2016-11-16T09:37:03.911Z,20
2016-11-16T09:39:39.288Z,20
2016-11-16T09:40:49.702Z,20
2016-11-16T09:42:00.109Z,20
2016-11-16T09:43:10.526Z,20
2016-11-16T09:44:20.940Z,20
2016-11-16T09:45:31.350Z,20
2016-11-16T09:46:42.266Z,20
2016-11-16T09:47:52.815Z,20
2016-11-16T09:49:03.343Z,20
2016-11-16T09:50:13.877Z,20
2016-11-16T09:51:24.407Z,20
2016-11-16T09:52:34.937Z,20
2016-11-16T09:53:45.464Z,20
2016-11-16T09:54:55.999Z,20
2016-11-16T09:57:32.081Z,20
2016-11-16T09:58:42.613Z,20
2016-11-16T09:59:53.214Z,20
2016-11-16T10:02:29.004Z,20
2016-11-16T10:03:39.535Z,20
2016-11-16T10:04:50.098Z,20
2016-11-16T10:06:00.640Z,20
2016-11-16T10:07:11.177Z,20
2016-11-16T10:08:21.907Z,20
2016-11-16T10:09:46.962Z,20
2016-11-16T10:10:57.488Z,20
2016-11-16T10:12:08.023Z,20
2016-11-16T10:13:18.556Z,20
2016-11-16T10:14:29.089Z,20
2016-11-16T10:15:39.620Z,25
2016-11-16T10:17:04.671Z,25
2016-11-16T10:18:29.725Z,25
2016-11-16T10:19:40.261Z,25
2016-11-16T10:20:50.687Z,25
2016-11-16T10:22:01.091Z,25
2016-11-16T10:23:11.502Z,20
2016-11-16T10:24:22.116Z,20
2016-11-16T10:25:32.527Z,20
2016-11-16T10:26:42.936Z,20
2016-11-16T10:27:53.350Z,15
2016-11-16T10:29:03.759Z,15
2016-11-16T10:30:14.173Z,15
2016-11-16T10:31:24.585Z,20
2016-11-16T10:32:35.048Z,15
2016-11-16T10:33:45.461Z,15
2016-11-16T10:34:56.362Z,15
2016-11-16T10:36:06.772Z,15
2016-11-16T10:37:17.184Z,15
2016-11-16T10:38:27.595Z,15
2016-11-16T10:39:38.006Z,15
2016-11-16T10:40:48.420Z,15
2016-11-16T10:42:13.382Z,15
2016-11-16T10:43:23.793Z,15
2016-11-16T10:44:34.208Z,15
2016-11-16T10:45:44.611Z,20
2016-11-16T10:47:09.767Z,20
2016-11-16T10:48:20.178Z,20
2016-11-16T10:49:30.584Z,20
2016-11-16T10:50:41.034Z,15
2016-11-16T10:51:51.640Z,15
2016-11-16T10:53:02.085Z,15
2016-11-16T10:54:12.492Z,15
2016-11-16T10:55:23.013Z,15
2016-11-16T10:56:48.067Z,20
2016-11-16T10:57:58.608Z,20
2016-11-16T10:59:09.137Z,20
2016-11-16T11:00:19.663Z,20
2016-11-16T11:01:30.189Z,20
2016-11-16T11:02:40.713Z,20
2016-11-16T11:03:51.241Z,20
2016-11-16T11:04:23.753Z,20
2016-11-16T11:05:34.285Z,20
2016-11-16T11:06:44.857Z,20
2016-11-16T11:07:55.337Z,20
2016-11-16T11:09:06.263Z,20
2016-11-16T11:10:16.699Z,20
2016-11-16T11:11:27.135Z,20
2016-11-16T11:12:52.118Z,20
2016-11-16T11:14:02.904Z,20
2016-11-16T11:15:13.338Z,20
2016-11-16T11:16:23.775Z,20
2016-11-16T11:17:34.214Z,20
2016-11-16T11:18:44.655Z,20
2016-11-16T11:19:55.091Z,20
2016-11-16T11:21:05.528Z,20
2016-11-16T11:22:15.961Z,20
2016-11-16T11:23:26.394Z,20
2016-11-16T11:24:36.834Z,20
2016-11-16T11:25:47.367Z,20
2016-11-16T11:26:57.798Z,20
2016-11-16T11:28:22.779Z,20
2016-11-16T11:29:47.773Z,20
2016-11-16T11:30:58.407Z,20
2016-11-16T11:32:08.847Z,20
2016-11-16T11:33:19.287Z,20
2016-11-16T11:34:44.268Z,20
2016-11-16T11:35:54.701Z,20
2016-11-16T11:37:05.148Z,25
2016-11-16T11:38:15.584Z,25
2016-11-16T11:39:26.467Z,25
2016-11-16T11:40:37.611Z,25
2016-11-16T11:41:49.150Z,30
2016-11-16T11:43:00.089Z,30
2016-11-16T11:44:10.539Z,30
2016-11-16T11:45:21.002Z,30
2016-11-16T11:46:31.490Z,30
2016-11-16T11:47:41.949Z,30
2016-11-16T11:48:52.897Z,30
2016-11-16T11:50:03.376Z,35
2016-11-16T11:51:13.811Z,35
2016-11-16T11:52:24.253Z,35
2016-11-16T11:53:34.720Z,35
2016-11-16T11:54:45.160Z,40
2016-11-16T11:55:55.599Z,40
2016-11-16T11:57:07.021Z,40
2016-11-16T11:58:32.004Z,45
2016-11-16T11:59:42.440Z,40
2016-11-16T12:00:52.878Z,40
2016-11-16T12:02:03.807Z,45
2016-11-16T12:03:14.247Z,45
2016-11-16T12:04:24.883Z,45
2016-11-16T12:05:35.829Z,45
2016-11-16T12:06:46.268Z,45
2016-11-16T12:07:56.708Z,45
2016-11-16T12:09:07.635Z,50
2016-11-16T12:11:43.172Z,50
2016-11-16T12:12:53.638Z,50
2016-11-16T12:14:04.074Z,55
2016-11-16T12:15:14.517Z,55
2016-11-16T12:16:40.000Z,55
2016-11-16T12:17:50.924Z,55
2016-11-16T12:19:01.361Z,55
2016-11-16T12:20:11.807Z,60
2016-11-16T12:21:22.247Z,60
2016-11-16T12:22:32.683Z,60
2016-11-16T12:23:43.130Z,65
2016-11-16T12:24:54.469Z,65
2016-11-16T12:26:05.400Z,65
2016-11-16T12:27:15.845Z,65
2016-11-16T12:28:26.287Z,65
2016-11-16T12:29:36.727Z,65
2016-11-16T12:30:47.167Z,70
2016-11-16T12:31:57.636Z,70
2016-11-16T12:33:08.085Z,70
2016-11-16T12:34:18.530Z,70
2016-11-16T12:35:28.976Z,70
2016-11-16T12:36:39.308Z,70
2016-11-16T12:37:49.728Z,70
2016-11-16T12:39:00.139Z,75
2016-11-16T12:40:10.585Z,75
2016-11-16T12:41:21.003Z,75
2016-11-16T12:42:31.419Z,75
2016-11-16T12:43:42.030Z,75
2016-11-16T12:44:52.444Z,75
2016-11-16T12:46:02.856Z,75
2016-11-16T12:47:13.269Z,70
2016-11-16T12:48:23.679Z,75
2016-11-16T12:49:34.094Z,75
2016-11-16T12:50:44.508Z,75
2016-11-16T12:51:54.918Z,75
2016-11-16T12:53:05.338Z,75
2016-11-16T12:54:15.759Z,75
2016-11-16T12:55:26.372Z,75
2016-11-16T12:56:51.333Z,75
2016-11-16T12:58:01.743Z,75
2016-11-16T12:59:12.154Z,75
2016-11-16T13:00:51.696Z,75
2016-11-16T13:02:02.106Z,75
2016-11-16T13:03:12.521Z,75
2016-11-16T13:04:37.510Z,75
2016-11-16T13:05:47.922Z,80
2016-11-16T13:06:58.341Z,75
2016-11-16T13:08:08.759Z,75
2016-11-16T13:09:19.175Z,75
2016-11-16T13:10:29.705Z,75
2016-11-16T13:11:40.239Z,75
2016-11-16T13:12:50.771Z,75
2016-11-16T13:14:01.305Z,80
2016-11-16T13:15:11.849Z,75
2016-11-16T13:16:22.382Z,80
2016-11-16T13:17:32.917Z,80
2016-11-16T13:18:43.472Z,80
2016-11-16T13:19:54.029Z,80
2016-11-16T13:21:04.567Z,80
2016-11-16T13:22:15.615Z,80
2016-11-16T13:24:51.214Z,85
2016-11-16T13:26:01.749Z,85
2016-11-16T13:27:12.284Z,85
2016-11-16T13:28:22.916Z,90
2016-11-16T13:29:33.640Z,90
2016-11-16T13:30:44.175Z,40
2016-11-16T13:31:54.716Z,80
2016-11-16T13:33:05.788Z,90
2016-11-16T13:34:16.328Z,90
2016-11-16T13:35:26.895Z,80
2016-11-16T13:36:37.433Z,30
2016-11-16T13:37:47.982Z,70
2016-11-16T13:38:58.518Z,90
2016-11-16T13:40:09.263Z,90
2016-11-16T13:41:20.300Z,95
2016-11-16T13:42:45.365Z,30
2016-11-16T13:43:55.905Z,25
2016-11-16T13:45:21.970Z,100
2016-11-16T13:46:32.873Z,90
2016-11-16T13:47:43.285Z,95
2016-11-16T13:48:53.707Z,95
2016-11-16T13:50:04.122Z,90
2016-11-16T13:51:14.738Z,95
2016-11-16T13:52:39.707Z,95
2016-11-16T13:53:50.120Z,95
2016-11-16T13:55:00.547Z,100
2016-11-16T13:56:11.065Z,95
2016-11-16T13:57:21.486Z,90
2016-11-16T13:58:31.935Z,90
2016-11-16T13:59:42.351Z,90
2016-11-16T14:00:52.761Z,45
2016-11-16T14:02:03.176Z,90
2016-11-16T14:03:28.146Z,25
2016-11-16T14:04:38.558Z,30
2016-11-16T14:05:48.977Z,95
2016-11-16T14:07:13.946Z,35
2016-11-16T14:08:24.367Z,25
2016-11-16T14:09:34.785Z,25
2016-11-16T14:10:59.755Z,90
2016-11-16T14:12:10.172Z,35
2016-11-16T14:13:20.586Z,35
2016-11-16T14:14:45.557Z,60
2016-11-16T14:15:55.969Z,100
2016-11-16T14:17:06.592Z,30
2016-11-16T14:18:17.012Z,25
2016-11-16T14:19:27.432Z,25
2016-11-16T14:20:37.845Z,25
2016-11-16T14:21:48.270Z,25
2016-11-16T14:22:58.689Z,25
2016-11-16T14:24:09.104Z,30
2016-11-16T14:25:19.514Z,30
2016-11-16T14:26:29.931Z,25
2016-11-16T14:27:40.829Z,30
2016-11-16T14:28:51.443Z,40
2016-11-16T14:30:01.855Z,40
2016-11-16T14:31:12.275Z,100
2016-11-16T14:32:22.689Z,100
2016-11-16T14:33:33.102Z,100
2016-11-16T14:34:43.518Z,95
2016-11-16T14:37:18.899Z,25
2016-11-16T14:38:29.315Z,25
2016-11-16T14:39:39.731Z,25
2016-11-16T14:40:50.147Z,25
2016-11-16T14:42:00.559Z,30
2016-11-16T14:43:10.973Z,35
2016-11-16T14:44:21.388Z,35
2016-11-16T14:45:31.802Z,100
2016-11-16T14:46:56.793Z,95
2016-11-16T14:48:07.210Z,95
2016-11-16T14:49:17.795Z,90
2016-11-16T14:50:28.836Z,90
2016-11-16T14:51:41.968Z,25
2016-11-16T14:52:52.503Z,30
2016-11-16T14:54:47.125Z,90
2016-11-16T14:55:57.858Z,95
2016-11-16T14:57:08.400Z,85
2016-11-16T14:58:18.939Z,85
2016-11-16T14:59:29.478Z,85
2016-11-16T15:00:40.043Z,85
2016-11-16T15:01:50.684Z,30
2016-11-16T15:03:01.219Z,85
2016-11-16T15:04:11.767Z,85
2016-11-16T15:05:22.310Z,90
2016-11-16T15:06:32.845Z,25
2016-11-16T15:07:43.380Z,30
2016-11-16T15:08:53.916Z,25
2016-11-16T15:10:04.455Z,85
2016-11-16T15:11:29.520Z,85
2016-11-16T15:14:05.184Z,60
2016-11-16T15:15:15.725Z,65
2016-11-16T15:16:26.262Z,35
2016-11-16T15:17:36.935Z,30
2016-11-16T15:18:47.476Z,25
2016-11-16T15:20:12.540Z,30
2016-11-16T15:21:23.078Z,55
2016-11-16T15:22:33.613Z,30
2016-11-16T15:23:44.197Z,25
2016-11-16T15:24:54.739Z,30
2016-11-16T15:27:30.342Z,70
2016-11-16T15:28:55.438Z,70
2016-11-16T15:30:05.976Z,70
2016-11-16T15:31:16.509Z,65
2016-11-16T15:32:41.572Z,60
2016-11-16T15:33:52.208Z,60
2016-11-16T15:35:03.268Z,60
2016-11-16T15:37:38.876Z,20
2016-11-16T15:38:49.414Z,20
2016-11-16T15:39:59.949Z,25
2016-11-16T15:41:10.523Z,60
2016-11-16T15:42:21.061Z,25
2016-11-16T15:43:31.600Z,60
2016-11-16T15:44:42.171Z,65
2016-11-16T15:45:52.711Z,60
2016-11-16T15:47:18.497Z,40
2016-11-16T15:48:29.061Z,30
2016-11-16T15:49:39.628Z,30
2016-11-16T15:50:50.213Z,60
2016-11-16T15:52:00.752Z,60
2016-11-16T15:53:11.295Z,60
2016-11-16T15:54:21.831Z,60
2016-11-16T15:55:32.371Z,55
2016-11-16T15:56:42.910Z,55
2016-11-16T15:58:08.500Z,55
2016-11-16T15:59:19.036Z,50
2016-11-16T16:00:29.578Z,55
2016-11-16T16:01:40.112Z,45
2016-11-16T16:02:50.663Z,25
2016-11-16T16:04:01.200Z,25
2016-11-16T16:05:11.741Z,55
2016-11-16T16:06:22.475Z,50
2016-11-16T16:07:33.051Z,30
2016-11-16T16:08:43.591Z,55
2016-11-16T16:09:54.126Z,55
2016-11-16T16:11:04.668Z,55
2016-11-16T16:12:15.207Z,55
2016-11-16T16:13:40.280Z,45
2016-11-16T16:14:50.820Z,55
2016-11-16T16:16:01.389Z,35
2016-11-16T16:17:26.455Z,40
2016-11-16T16:18:37.009Z,25
2016-11-16T16:21:27.139Z,50
2016-11-16T16:22:37.877Z,40
2016-11-16T16:23:48.431Z,55
2016-11-16T16:26:24.031Z,55
2016-11-16T16:27:34.664Z,55
2016-11-16T16:28:45.212Z,50
2016-11-16T16:29:55.746Z,45
2016-11-16T16:31:06.285Z,45
2016-11-16T16:32:16.851Z,25
2016-11-16T16:33:27.588Z,25
2016-11-16T16:34:38.193Z,25
2016-11-16T16:35:48.735Z,50
2016-11-16T16:36:59.278Z,25
2016-11-16T16:38:09.850Z,25
2016-11-16T16:39:20.485Z,25
2016-11-16T16:40:45.552Z,25
2016-11-16T16:41:56.097Z,45
2016-11-16T16:43:06.633Z,30
2016-11-16T16:44:17.370Z,25
2016-11-16T16:45:27.909Z,30
2016-11-16T16:46:38.445Z,45
2016-11-16T16:47:48.982Z,30
2016-11-16T16:48:59.519Z,25
2016-11-16T16:50:10.056Z,25
2016-11-16T16:51:20.596Z,40
2016-11-16T16:52:45.660Z,45
2016-11-16T16:53:56.191Z,25
2016-11-16T16:55:06.724Z,45
2016-11-16T16:56:17.261Z,45
2016-11-16T16:57:27.795Z,45
2016-11-16T16:58:38.338Z,45
2016-11-16T16:59:48.883Z,40
2016-11-16T17:01:00.021Z,40
2016-11-16T17:02:10.556Z,20
2016-11-16T17:03:21.101Z,40
2016-11-16T17:04:31.636Z,40
2016-11-16T17:05:42.173Z,45
2016-11-16T17:06:52.705Z,45
2016-11-16T17:08:17.773Z,55
2016-11-16T17:09:28.202Z,50
2016-11-16T17:10:38.613Z,40
2016-11-16T17:11:49.027Z,40
2016-11-16T17:12:59.442Z,35
2016-11-16T17:14:09.858Z,35
2016-11-16T17:15:20.275Z,35
2016-11-16T17:16:30.698Z,35
2016-11-16T17:17:41.125Z,35
2016-11-16T17:18:51.540Z,35
2016-11-16T17:20:02.171Z,40
2016-11-16T17:21:13.077Z,40
2016-11-16T17:22:23.491Z,40
2016-11-16T17:23:33.908Z,35
2016-11-16T17:24:44.329Z,30
2016-11-16T17:25:54.775Z,35
2016-11-16T17:27:05.196Z,45
2016-11-16T17:28:15.611Z,50
2016-11-16T17:29:26.025Z,45
2016-11-16T17:30:36.441Z,50
2016-11-16T17:31:46.855Z,25
2016-11-16T17:32:57.271Z,25
2016-11-16T17:34:07.689Z,25
2016-11-16T17:35:18.108Z,20
2016-11-16T17:36:28.560Z,20
2016-11-16T17:37:38.980Z,25
2016-11-16T17:38:49.394Z,25
2016-11-16T17:39:59.811Z,30
2016-11-16T17:41:10.328Z,35
2016-11-16T17:42:20.758Z,35
2016-11-16T17:43:31.177Z,45
2016-11-16T17:45:10.696Z,40
2016-11-16T17:46:21.215Z,45
2016-11-16T17:47:31.632Z,40
2016-11-16T17:48:42.047Z,45
2016-11-16T17:49:52.573Z,50
2016-11-16T17:51:03.175Z,60
2016-11-16T17:52:13.549Z,55
2016-11-16T17:53:23.893Z,55